sensor_id;sensor_type;location;lat;lon;timestamp;P1;durP1;ratioP1;P2;durP2;ratioP2
23490;SDS011;14683;50.038;8.078;2023-02-28T07:02:18;2.70;;;2.50;;
23490;SDS011;14683;50.038;8.078;2023-02-28T07:04:44;3.28;;;2.35;;
23490;SDS011;14683;50.038;8.078;2023-02-28T07:07:10;3.65;;;2.80;;
23490;SDS011;14683;50.038;8.078;2023-02-28T07:09:36;3.53;;;2.45;;
23490;SDS011;14683;50.038;8.078;2023-02-28T07:12:02;2.10;;;2.00;;
23490;SDS011;14683;50.038;8.078;2023-02-28T07:14:28;2.33;;;2.13;;
23490;SDS011;14683;50.038;8.078;2023-02-28T07:16:54;2.17;;;2.03;;
23490;SDS011;14683;50.038;8.078;2023-02-28T07:19:20;2.67;;;2.47;;
23490;SDS011;14683;50.038;8.078;2023-02-28T07:21:46;2.28;;;2.08;;
23490;SDS011;14683;50.038;8.078;2023-02-28T07:24:12;2.60;;;2.25;;
23490;SDS011;14683;50.038;8.078;2023-02-28T07:26:41;3.05;;;2.28;;
23490;SDS011;14683;50.038;8.078;2023-02-28T07:29:07;2.50;;;2.10;;
23490;SDS011;14683;50.038;8.078;2023-02-28T07:31:33;3.80;;;2.45;;
23490;SDS011;14683;50.038;8.078;2023-02-28T07:33:59;2.33;;;2.13;;
23490;SDS011;14683;50.038;8.078;2023-02-28T07:36:25;2.45;;;1.88;;
23490;SDS011;14683;50.038;8.078;2023-02-28T07:38:51;2.40;;;2.03;;
23490;SDS011;14683;50.038;8.078;2023-02-28T07:41:18;2.72;;;1.75;;
23490;SDS011;14683;50.038;8.078;2023-02-28T07:43:45;2.30;;;2.10;;
23490;SDS011;14683;50.038;8.078;2023-02-28T07:46:12;3.28;;;2.00;;
23490;SDS011;14683;50.038;8.078;2023-02-28T07:48:40;2.30;;;2.10;;
23490;SDS011;14683;50.038;8.078;2023-02-28T07:51:06;1.85;;;1.75;;
23490;SDS011;14683;50.038;8.078;2023-02-28T07:53:32;2.55;;;1.88;;
23490;SDS011;14683;50.038;8.078;2023-02-28T07:55:59;2.85;;;1.90;;
23490;SDS011;14683;50.038;8.078;2023-02-28T07:58:26;2.03;;;1.80;;
23490;SDS011;14683;50.038;8.078;2023-02-28T08:00:53;2.47;;;2.20;;
23490;SDS011;14683;50.038;8.078;2023-02-28T08:03:20;3.00;;;2.00;;
23490;SDS011;14683;50.038;8.078;2023-02-28T08:05:47;4.30;;;2.28;;
23490;SDS011;14683;50.038;8.078;2023-02-28T08:08:13;2.55;;;2.15;;
23490;SDS011;14683;50.038;8.078;2023-02-28T08:10:40;5.15;;;2.42;;
23490;SDS011;14683;50.038;8.078;2023-02-28T08:13:06;2.42;;;1.92;;
23490;SDS011;14683;50.038;8.078;2023-02-28T08:15:32;2.10;;;2.00;;
23490;SDS011;14683;50.038;8.078;2023-02-28T08:17:58;3.78;;;2.35;;
23490;SDS011;14683;50.038;8.078;2023-02-28T08:20:25;2.50;;;2.08;;
23490;SDS011;14683;50.038;8.078;2023-02-28T08:22:51;2.90;;;2.28;;
23490;SDS011;14683;50.038;8.078;2023-02-28T08:25:17;3.65;;;2.00;;
23490;SDS011;14683;50.038;8.078;2023-02-28T08:27:44;3.38;;;2.00;;
23490;SDS011;14683;50.038;8.078;2023-02-28T08:30:11;2.60;;;2.20;;
23490;SDS011;14683;50.038;8.078;2023-02-28T08:32:38;2.88;;;2.47;;
23490;SDS011;14683;50.038;8.078;2023-02-28T08:35:05;2.85;;;2.65;;
23490;SDS011;14683;50.038;8.078;2023-02-28T08:37:32;5.03;;;2.70;;
23490;SDS011;14683;50.038;8.078;2023-02-28T08:39:58;4.38;;;2.80;;
23490;SDS011;14683;50.038;8.078;2023-02-28T08:42:24;3.45;;;2.53;;
23490;SDS011;14683;50.038;8.078;2023-02-28T08:44:50;4.47;;;2.60;;
23490;SDS011;14683;50.038;8.078;2023-02-28T08:47:16;4.35;;;2.35;;
23490;SDS011;14683;50.038;8.078;2023-02-28T08:49:42;2.65;;;2.45;;
23490;SDS011;14683;50.038;8.078;2023-02-28T08:52:08;2.72;;;2.22;;
23490;SDS011;14683;50.038;8.078;2023-02-28T08:54:34;4.43;;;2.75;;
23490;SDS011;14683;50.038;8.078;2023-02-28T08:57:01;3.00;;;2.70;;
23490;SDS011;14683;50.038;8.078;2023-02-28T08:59:28;3.58;;;2.80;;
23490;SDS011;14683;50.038;8.078;2023-02-28T09:01:54;4.82;;;2.90;;
23490;SDS011;14683;50.038;8.078;2023-02-28T09:04:20;3.75;;;2.55;;
23490;SDS011;14683;50.038;8.078;2023-02-28T09:06:46;2.70;;;2.50;;
23490;SDS011;14683;50.038;8.078;2023-02-28T09:09:14;4.10;;;3.30;;
23490;SDS011;14683;50.038;8.078;2023-02-28T09:11:41;3.60;;;2.85;;
23490;SDS011;14683;50.038;8.078;2023-02-28T09:14:07;3.15;;;2.83;;
23490;SDS011;14683;50.038;8.078;2023-02-28T09:16:33;6.47;;;3.63;;
23490;SDS011;14683;50.038;8.078;2023-02-28T09:19:00;6.35;;;3.97;;
23490;SDS011;14683;50.038;8.078;2023-02-28T09:21:26;4.95;;;3.80;;
23490;SDS011;14683;50.038;8.078;2023-02-28T09:23:52;3.40;;;2.90;;
23490;SDS011;14683;50.038;8.078;2023-02-28T09:26:20;4.82;;;3.85;;
23490;SDS011;14683;50.038;8.078;2023-02-28T09:28:48;3.78;;;3.25;;
23490;SDS011;14683;50.038;8.078;2023-02-28T09:31:14;4.07;;;3.25;;
23490;SDS011;14683;50.038;8.078;2023-02-28T09:33:42;5.88;;;3.90;;
23490;SDS011;14683;50.038;8.078;2023-02-28T09:36:08;4.05;;;3.65;;
23490;SDS011;14683;50.038;8.078;2023-02-28T09:38:34;4.20;;;3.38;;
23490;SDS011;14683;50.038;8.078;2023-02-28T09:41:01;5.28;;;4.18;;
23490;SDS011;14683;50.038;8.078;2023-02-28T09:43:32;4.38;;;3.63;;
23490;SDS011;14683;50.038;8.078;2023-02-28T09:46:04;5.32;;;3.83;;
23490;SDS011;14683;50.038;8.078;2023-02-28T09:48:37;5.45;;;4.15;;
23490;SDS011;14683;50.038;8.078;2023-02-28T09:51:27;6.43;;;3.63;;
23490;SDS011;14683;50.038;8.078;2023-02-28T09:53:56;4.30;;;3.47;;
23490;SDS011;14683;50.038;8.078;2023-02-28T09:56:24;5.35;;;3.97;;
23490;SDS011;14683;50.038;8.078;2023-02-28T10:06:50;4.57;;;3.78;;
23490;SDS011;14683;50.038;8.078;2023-02-28T10:09:24;4.25;;;3.10;;
23490;SDS011;14683;50.038;8.078;2023-02-28T10:11:52;4.70;;;3.42;;
23490;SDS011;14683;50.038;8.078;2023-02-28T10:14:24;6.05;;;3.65;;
23490;SDS011;14683;50.038;8.078;2023-02-28T10:16:56;4.78;;;3.50;;
23490;SDS011;14683;50.038;8.078;2023-02-28T10:24:41;5.63;;;3.60;;
23490;SDS011;14683;50.038;8.078;2023-02-28T10:29:51;3.90;;;3.50;;
23490;SDS011;14683;50.038;8.078;2023-02-28T10:32:20;3.97;;;3.60;;
23490;SDS011;14683;50.038;8.078;2023-02-28T10:34:52;5.03;;;3.78;;
23490;SDS011;14683;50.038;8.078;2023-02-28T10:37:22;4.18;;;3.53;;
23490;SDS011;14683;50.038;8.078;2023-02-28T10:39:48;5.63;;;3.78;;
23490;SDS011;14683;50.038;8.078;2023-02-28T10:42:19;4.32;;;3.50;;
23490;SDS011;14683;50.038;8.078;2023-02-28T10:44:47;5.40;;;4.22;;
23490;SDS011;14683;50.038;8.078;2023-02-28T10:47:14;4.05;;;3.40;;
23490;SDS011;14683;50.038;8.078;2023-02-28T10:49:49;5.13;;;3.10;;
23490;SDS011;14683;50.038;8.078;2023-02-28T10:52:32;4.43;;;3.47;;
23490;SDS011;14683;50.038;8.078;2023-02-28T10:55:21;5.93;;;3.50;;
23490;SDS011;14683;50.038;8.078;2023-02-28T10:57:51;4.57;;;3.88;;
23490;SDS011;14683;50.038;8.078;2023-02-28T11:00:19;4.70;;;3.67;;
23490;SDS011;14683;50.038;8.078;2023-02-28T11:02:51;4.40;;;3.78;;
23490;SDS011;14683;50.038;8.078;2023-02-28T11:05:24;5.90;;;4.03;;
23490;SDS011;14683;50.038;8.078;2023-02-28T11:08:02;4.55;;;3.72;;
23490;SDS011;14683;50.038;8.078;2023-02-28T11:10:53;5.95;;;3.67;;
23490;SDS011;14683;50.038;8.078;2023-02-28T11:13:21;6.10;;;4.20;;
23490;SDS011;14683;50.038;8.078;2023-02-28T11:15:58;4.60;;;3.53;;
23490;SDS011;14683;50.038;8.078;2023-02-28T11:21:03;4.35;;;3.85;;
23490;SDS011;14683;50.038;8.078;2023-02-28T11:23:30;5.75;;;4.43;;
23490;SDS011;14683;50.038;8.078;2023-02-28T11:25:59;5.25;;;4.13;;
23490;SDS011;14683;50.038;8.078;2023-02-28T11:28:34;6.05;;;4.38;;
23490;SDS011;14683;50.038;8.078;2023-02-28T11:33:43;6.00;;;4.13;;
23490;SDS011;14683;50.038;8.078;2023-02-28T11:36:27;4.80;;;4.20;;
23490;SDS011;14683;50.038;8.078;2023-02-28T11:38:56;7.45;;;4.05;;
23490;SDS011;14683;50.038;8.078;2023-02-28T11:44:12;5.68;;;4.63;;
23490;SDS011;14683;50.038;8.078;2023-02-28T11:46:51;4.90;;;4.38;;
23490;SDS011;14683;50.038;8.078;2023-02-28T11:49:28;5.70;;;4.80;;
23490;SDS011;14683;50.038;8.078;2023-02-28T11:51:59;5.88;;;4.25;;
23490;SDS011;14683;50.038;8.078;2023-02-28T11:54:49;5.22;;;4.03;;
23490;SDS011;14683;50.038;8.078;2023-02-28T12:03:11;6.78;;;4.45;;
23490;SDS011;14683;50.038;8.078;2023-02-28T12:16:48;4.65;;;4.07;;
23490;SDS011;14683;50.038;8.078;2023-02-28T12:19:43;7.50;;;4.90;;
23490;SDS011;14683;50.038;8.078;2023-02-28T12:22:27;6.43;;;4.78;;
23490;SDS011;14683;50.038;8.078;2023-02-28T12:27:58;5.80;;;4.32;;
23490;SDS011;14683;50.038;8.078;2023-02-28T12:30:32;5.13;;;4.63;;
23490;SDS011;14683;50.038;8.078;2023-02-28T12:36:17;6.32;;;4.68;;
23490;SDS011;14683;50.038;8.078;2023-02-28T12:38:25;6.35;;;4.80;;
23490;SDS011;14683;50.038;8.078;2023-02-28T12:40:59;6.20;;;4.93;;
23490;SDS011;14683;50.038;8.078;2023-02-28T12:43:29;5.88;;;4.70;;
23490;SDS011;14683;50.038;8.078;2023-02-28T12:46:03;5.15;;;4.55;;
23490;SDS011;14683;50.038;8.078;2023-02-28T12:48:40;5.82;;;4.32;;
23490;SDS011;14683;50.038;8.078;2023-02-28T12:51:08;7.03;;;4.60;;
23490;SDS011;14683;50.038;8.078;2023-02-28T13:06:43;6.80;;;5.00;;
23490;SDS011;14683;50.038;8.078;2023-02-28T13:09:18;5.65;;;4.70;;
23490;SDS011;14683;50.038;8.078;2023-02-28T13:11:45;6.00;;;5.03;;
23490;SDS011;14683;50.038;8.078;2023-02-28T13:14:19;7.38;;;5.25;;
23490;SDS011;14683;50.038;8.078;2023-02-28T13:16:59;6.93;;;4.90;;
23490;SDS011;14683;50.038;8.078;2023-02-28T13:19:31;5.57;;;4.75;;
23490;SDS011;14683;50.038;8.078;2023-02-28T13:21:59;6.75;;;5.40;;
23490;SDS011;14683;50.038;8.078;2023-02-28T13:24:42;5.63;;;5.03;;
23490;SDS011;14683;50.038;8.078;2023-02-28T13:27:32;8.23;;;5.57;;
23490;SDS011;14683;50.038;8.078;2023-02-28T13:29:59;8.23;;;5.40;;
23490;SDS011;14683;50.038;8.078;2023-02-28T13:39:50;7.00;;;4.72;;
23490;SDS011;14683;50.038;8.078;2023-02-28T13:42:35;7.35;;;5.38;;
23490;SDS011;14683;50.038;8.078;2023-02-28T13:50:21;6.68;;;4.75;;
23490;SDS011;14683;50.038;8.078;2023-02-28T14:06:47;7.72;;;5.47;;
23490;SDS011;14683;50.038;8.078;2023-02-28T14:09:23;7.45;;;5.88;;
23490;SDS011;14683;50.038;8.078;2023-02-28T14:11:49;7.47;;;5.47;;
23490;SDS011;14683;50.038;8.078;2023-02-28T14:17:03;6.25;;;5.32;;
23490;SDS011;14683;50.038;8.078;2023-02-28T14:19:31;9.43;;;6.25;;
23490;SDS011;14683;50.038;8.078;2023-02-28T14:29:43;7.15;;;5.10;;
23490;SDS011;14683;50.038;8.078;2023-02-28T14:32:32;7.05;;;4.97;;
23490;SDS011;14683;50.038;8.078;2023-02-28T14:37:51;6.85;;;4.90;;
23490;SDS011;14683;50.038;8.078;2023-02-28T14:40:21;6.57;;;4.93;;
23490;SDS011;14683;50.038;8.078;2023-02-28T14:42:57;5.30;;;4.80;;
23490;SDS011;14683;50.038;8.078;2023-02-28T14:45:25;9.40;;;5.38;;
23490;SDS011;14683;50.038;8.078;2023-02-28T14:47:53;9.65;;;5.60;;
23490;SDS011;14683;50.038;8.078;2023-02-28T14:52:45;8.45;;;5.65;;
23490;SDS011;14683;50.038;8.078;2023-02-28T14:55:13;6.78;;;5.18;;
23490;SDS011;14683;50.038;8.078;2023-02-28T14:57:42;6.50;;;5.15;;
23490;SDS011;14683;50.038;8.078;2023-02-28T15:00:21;6.97;;;5.50;;
23490;SDS011;14683;50.038;8.078;2023-02-28T15:02:52;6.10;;;4.97;;
23490;SDS011;14683;50.038;8.078;2023-02-28T15:08:06;6.75;;;5.10;;
23490;SDS011;14683;50.038;8.078;2023-02-28T15:10:56;7.85;;;5.50;;
23490;SDS011;14683;50.038;8.078;2023-02-28T15:13:26;5.80;;;5.05;;
23490;SDS011;14683;50.038;8.078;2023-02-28T15:16:02;5.45;;;4.72;;
23490;SDS011;14683;50.038;8.078;2023-02-28T15:21:14;5.93;;;4.90;;
23490;SDS011;14683;50.038;8.078;2023-02-28T15:23:43;6.10;;;5.10;;
23490;SDS011;14683;50.038;8.078;2023-02-28T15:26:17;7.28;;;4.97;;
23490;SDS011;14683;50.038;8.078;2023-02-28T15:28:45;9.40;;;4.95;;
23490;SDS011;14683;50.038;8.078;2023-02-28T15:31:23;9.00;;;5.50;;
23490;SDS011;14683;50.038;8.078;2023-02-28T15:33:54;7.88;;;4.90;;
23490;SDS011;14683;50.038;8.078;2023-02-28T15:36:23;5.88;;;5.22;;
23490;SDS011;14683;50.038;8.078;2023-02-28T15:38:53;7.28;;;4.95;;
23490;SDS011;14683;50.038;8.078;2023-02-28T15:41:26;5.68;;;5.05;;
23490;SDS011;14683;50.038;8.078;2023-02-28T15:46:40;6.45;;;5.03;;
23490;SDS011;14683;50.038;8.078;2023-02-28T15:49:14;6.53;;;5.22;;
23490;SDS011;14683;50.038;8.078;2023-02-28T15:51:44;6.10;;;5.13;;
23490;SDS011;14683;50.038;8.078;2023-02-28T15:54:12;7.45;;;5.30;;
23490;SDS011;14683;50.038;8.078;2023-02-28T15:57:01;7.20;;;5.55;;
23490;SDS011;14683;50.038;8.078;2023-02-28T15:59:34;7.07;;;5.88;;
23490;SDS011;14683;50.038;8.078;2023-02-28T16:04:36;10.27;;;5.30;;
23490;SDS011;14683;50.038;8.078;2023-02-28T16:07:03;6.35;;;5.32;;
23490;SDS011;14683;50.038;8.078;2023-02-28T16:09:30;7.65;;;5.20;;
23490;SDS011;14683;50.038;8.078;2023-02-28T16:11:59;12.15;;;5.10;;
23490;SDS011;14683;50.038;8.078;2023-02-28T16:14:30;5.60;;;4.90;;
23490;SDS011;14683;50.038;8.078;2023-02-28T16:17:02;6.78;;;4.97;;
23490;SDS011;14683;50.038;8.078;2023-02-28T16:19:29;7.53;;;5.43;;
23490;SDS011;14683;50.038;8.078;2023-02-28T16:21:56;8.15;;;5.95;;
23490;SDS011;14683;50.038;8.078;2023-02-28T16:24:22;8.00;;;5.60;;
23490;SDS011;14683;50.038;8.078;2023-02-28T16:29:25;7.40;;;5.35;;
23490;SDS011;14683;50.038;8.078;2023-02-28T16:31:53;9.73;;;6.05;;
23490;SDS011;14683;50.038;8.078;2023-02-28T16:36:46;10.05;;;5.68;;
23490;SDS011;14683;50.038;8.078;2023-02-28T16:39:12;10.25;;;5.63;;
23490;SDS011;14683;50.038;8.078;2023-02-28T16:41:38;8.77;;;6.20;;
23490;SDS011;14683;50.038;8.078;2023-02-28T16:44:09;9.38;;;6.20;;
23490;SDS011;14683;50.038;8.078;2023-02-28T16:46:38;6.78;;;5.05;;
23490;SDS011;14683;50.038;8.078;2023-02-28T16:49:05;8.27;;;5.45;;
23490;SDS011;14683;50.038;8.078;2023-02-28T16:51:36;6.28;;;5.10;;
23490;SDS011;14683;50.038;8.078;2023-02-28T16:56:28;7.93;;;5.40;;
23490;SDS011;14683;50.038;8.078;2023-02-28T16:58:55;7.65;;;5.10;;
23490;SDS011;14683;50.038;8.078;2023-02-28T17:01:25;6.50;;;4.80;;
23490;SDS011;14683;50.038;8.078;2023-02-28T17:03:52;6.18;;;5.00;;
23490;SDS011;14683;50.038;8.078;2023-02-28T17:06:20;9.00;;;5.28;;
23490;SDS011;14683;50.038;8.078;2023-02-28T17:08:50;11.73;;;5.20;;
23490;SDS011;14683;50.038;8.078;2023-02-28T17:11:17;7.93;;;5.00;;
23490;SDS011;14683;50.038;8.078;2023-02-28T17:13:44;5.65;;;4.75;;
23490;SDS011;14683;50.038;8.078;2023-02-28T17:16:16;7.63;;;5.57;;
23490;SDS011;14683;50.038;8.078;2023-02-28T17:18:49;6.10;;;5.45;;
23490;SDS011;14683;50.038;8.078;2023-02-28T17:21:16;7.80;;;5.88;;
23490;SDS011;14683;50.038;8.078;2023-02-28T17:23:42;6.70;;;5.57;;
23490;SDS011;14683;50.038;8.078;2023-02-28T17:26:11;6.57;;;5.90;;
23490;SDS011;14683;50.038;8.078;2023-02-28T17:28:39;10.80;;;7.32;;
23490;SDS011;14683;50.038;8.078;2023-02-28T17:31:05;11.43;;;7.38;;
23490;SDS011;14683;50.038;8.078;2023-02-28T17:33:31;7.25;;;5.25;;
23490;SDS011;14683;50.038;8.078;2023-02-28T17:35:57;11.73;;;6.13;;
23490;SDS011;14683;50.038;8.078;2023-02-28T17:38:23;16.25;;;8.77;;
23490;SDS011;14683;50.038;8.078;2023-02-28T17:40:49;19.42;;;10.73;;
23490;SDS011;14683;50.038;8.078;2023-02-28T17:43:15;17.65;;;9.27;;
23490;SDS011;14683;50.038;8.078;2023-02-28T17:45:41;16.27;;;9.98;;
23490;SDS011;14683;50.038;8.078;2023-02-28T17:48:09;18.67;;;11.25;;
23490;SDS011;14683;50.038;8.078;2023-02-28T17:50:35;19.60;;;11.68;;
23490;SDS011;14683;50.038;8.078;2023-02-28T17:53:01;19.40;;;10.57;;
23490;SDS011;14683;50.038;8.078;2023-02-28T17:55:27;22.77;;;12.32;;
23490;SDS011;14683;50.038;8.078;2023-02-28T17:57:53;19.70;;;10.82;;
23490;SDS011;14683;50.038;8.078;2023-02-28T18:00:19;43.97;;;20.45;;
23490;SDS011;14683;50.038;8.078;2023-02-28T18:02:49;11.13;;;7.88;;
23490;SDS011;14683;50.038;8.078;2023-02-28T18:05:15;14.40;;;9.73;;
23490;SDS011;14683;50.038;8.078;2023-02-28T18:07:41;12.60;;;8.73;;
23490;SDS011;14683;50.038;8.078;2023-02-28T18:10:11;13.43;;;8.20;;
23490;SDS011;14683;50.038;8.078;2023-02-28T18:12:40;10.30;;;6.57;;
23490;SDS011;14683;50.038;8.078;2023-02-28T18:15:06;15.25;;;9.30;;
23490;SDS011;14683;50.038;8.078;2023-02-28T18:17:33;15.75;;;10.52;;
23490;SDS011;14683;50.038;8.078;2023-02-28T18:19:59;24.88;;;13.63;;
23490;SDS011;14683;50.038;8.078;2023-02-28T18:22:25;27.80;;;17.58;;
23490;SDS011;14683;50.038;8.078;2023-02-28T18:24:51;15.43;;;9.48;;
23490;SDS011;14683;50.038;8.078;2023-02-28T18:27:17;21.83;;;14.68;;
23490;SDS011;14683;50.038;8.078;2023-02-28T18:29:43;17.45;;;11.27;;
23490;SDS011;14683;50.038;8.078;2023-02-28T18:32:09;15.77;;;10.50;;
23490;SDS011;14683;50.038;8.078;2023-02-28T18:34:35;16.67;;;10.27;;
23490;SDS011;14683;50.038;8.078;2023-02-28T18:37:02;12.85;;;8.55;;
23490;SDS011;14683;50.038;8.078;2023-02-28T18:39:29;18.90;;;10.70;;
23490;SDS011;14683;50.038;8.078;2023-02-28T18:41:55;16.73;;;10.35;;
23490;SDS011;14683;50.038;8.078;2023-02-28T18:44:21;14.07;;;8.88;;
23490;SDS011;14683;50.038;8.078;2023-02-28T18:46:47;14.52;;;8.18;;
23490;SDS011;14683;50.038;8.078;2023-02-28T18:49:15;14.82;;;8.90;;
23490;SDS011;14683;50.038;8.078;2023-02-28T18:51:41;11.40;;;7.47;;
23490;SDS011;14683;50.038;8.078;2023-02-28T18:54:10;15.88;;;8.85;;
23490;SDS011;14683;50.038;8.078;2023-02-28T18:56:36;11.60;;;7.30;;
23490;SDS011;14683;50.038;8.078;2023-02-28T18:59:02;13.75;;;7.63;;
23490;SDS011;14683;50.038;8.078;2023-02-28T19:01:28;13.60;;;7.97;;
23490;SDS011;14683;50.038;8.078;2023-02-28T19:03:57;10.60;;;7.10;;
23490;SDS011;14683;50.038;8.078;2023-02-28T19:06:25;12.70;;;7.03;;
23490;SDS011;14683;50.038;8.078;2023-02-28T19:08:52;13.07;;;8.40;;
23490;SDS011;14683;50.038;8.078;2023-02-28T19:11:19;14.10;;;6.85;;
23490;SDS011;14683;50.038;8.078;2023-02-28T19:13:46;9.15;;;5.90;;
23490;SDS011;14683;50.038;8.078;2023-02-28T19:16:13;11.23;;;6.57;;
23490;SDS011;14683;50.038;8.078;2023-02-28T19:18:39;8.85;;;6.07;;
23490;SDS011;14683;50.038;8.078;2023-02-28T19:21:06;10.60;;;6.85;;
23490;SDS011;14683;50.038;8.078;2023-02-28T19:23:33;14.80;;;9.20;;
23490;SDS011;14683;50.038;8.078;2023-02-28T19:25:59;12.52;;;7.32;;
23490;SDS011;14683;50.038;8.078;2023-02-28T19:28:28;11.68;;;8.23;;
23490;SDS011;14683;50.038;8.078;2023-02-28T19:30:55;12.07;;;9.02;;
23490;SDS011;14683;50.038;8.078;2023-02-28T19:33:21;8.10;;;7.05;;
23490;SDS011;14683;50.038;8.078;2023-02-28T19:35:47;9.32;;;7.22;;
23490;SDS011;14683;50.038;8.078;2023-02-28T19:38:13;7.40;;;5.93;;
23490;SDS011;14683;50.038;8.078;2023-02-28T19:40:40;8.13;;;6.03;;
23490;SDS011;14683;50.038;8.078;2023-02-28T19:43:06;8.88;;;5.60;;
23490;SDS011;14683;50.038;8.078;2023-02-28T19:45:33;7.15;;;5.88;;
23490;SDS011;14683;50.038;8.078;2023-02-28T19:48:00;7.15;;;5.50;;
23490;SDS011;14683;50.038;8.078;2023-02-28T19:50:26;11.93;;;6.15;;
23490;SDS011;14683;50.038;8.078;2023-02-28T19:52:52;9.25;;;5.88;;
23490;SDS011;14683;50.038;8.078;2023-02-28T19:55:18;9.23;;;6.05;;
23490;SDS011;14683;50.038;8.078;2023-02-28T19:57:44;7.88;;;5.82;;
23490;SDS011;14683;50.038;8.078;2023-02-28T20:00:11;8.25;;;6.20;;
23490;SDS011;14683;50.038;8.078;2023-02-28T20:02:38;9.15;;;6.70;;
23490;SDS011;14683;50.038;8.078;2023-02-28T20:05:05;10.73;;;6.00;;
23490;SDS011;14683;50.038;8.078;2023-02-28T20:07:31;6.60;;;5.72;;
23490;SDS011;14683;50.038;8.078;2023-02-28T20:09:57;9.75;;;6.07;;
23490;SDS011;14683;50.038;8.078;2023-02-28T20:12:24;8.15;;;5.18;;
23490;SDS011;14683;50.038;8.078;2023-02-28T20:14:51;7.55;;;5.88;;
23490;SDS011;14683;50.038;8.078;2023-02-28T20:17:17;8.82;;;5.88;;
23490;SDS011;14683;50.038;8.078;2023-02-28T20:19:44;9.52;;;6.13;;
23490;SDS011;14683;50.038;8.078;2023-02-28T20:22:10;10.95;;;6.40;;
23490;SDS011;14683;50.038;8.078;2023-02-28T20:24:36;7.78;;;5.70;;
23490;SDS011;14683;50.038;8.078;2023-02-28T20:27:02;8.75;;;6.05;;
23490;SDS011;14683;50.038;8.078;2023-02-28T20:29:28;8.45;;;5.88;;
23490;SDS011;14683;50.038;8.078;2023-02-28T20:31:54;15.38;;;9.82;;
23490;SDS011;14683;50.038;8.078;2023-02-28T20:34:22;38.88;;;17.83;;
23490;SDS011;14683;50.038;8.078;2023-02-28T20:36:49;11.60;;;8.00;;
23490;SDS011;14683;50.038;8.078;2023-02-28T20:39:16;8.88;;;5.88;;
23490;SDS011;14683;50.038;8.078;2023-02-28T20:41:42;10.60;;;7.30;;
23490;SDS011;14683;50.038;8.078;2023-02-28T20:44:10;8.00;;;6.18;;
23490;SDS011;14683;50.038;8.078;2023-02-28T20:46:36;9.98;;;6.53;;
23490;SDS011;14683;50.038;8.078;2023-02-28T20:49:03;12.15;;;7.43;;
23490;SDS011;14683;50.038;8.078;2023-02-28T20:51:29;9.65;;;6.20;;
23490;SDS011;14683;50.038;8.078;2023-02-28T20:53:55;11.90;;;6.05;;
23490;SDS011;14683;50.038;8.078;2023-02-28T20:56:21;10.63;;;6.30;;
23490;SDS011;14683;50.038;8.078;2023-02-28T20:58:52;10.07;;;6.70;;
23490;SDS011;14683;50.038;8.078;2023-02-28T21:01:21;9.10;;;6.63;;
23490;SDS011;14683;50.038;8.078;2023-02-28T21:03:52;10.52;;;6.93;;
23490;SDS011;14683;50.038;8.078;2023-02-28T21:06:24;12.43;;;7.50;;
23490;SDS011;14683;50.038;8.078;2023-02-28T21:08:51;14.25;;;7.35;;
23490;SDS011;14683;50.038;8.078;2023-02-28T21:11:21;11.70;;;7.22;;
23490;SDS011;14683;50.038;8.078;2023-02-28T21:13:49;13.38;;;7.95;;
23490;SDS011;14683;50.038;8.078;2023-02-28T21:16:19;13.38;;;7.90;;
23490;SDS011;14683;50.038;8.078;2023-02-28T21:18:50;12.55;;;7.97;;
23490;SDS011;14683;50.038;8.078;2023-02-28T21:21:19;10.75;;;7.00;;
23490;SDS011;14683;50.038;8.078;2023-02-28T21:23:46;12.32;;;7.82;;
23490;SDS011;14683;50.038;8.078;2023-02-28T21:26:14;13.55;;;8.05;;
23490;SDS011;14683;50.038;8.078;2023-02-28T21:28:41;13.77;;;7.65;;
23490;SDS011;14683;50.038;8.078;2023-02-28T21:31:10;16.23;;;7.97;;
23490;SDS011;14683;50.038;8.078;2023-02-28T21:33:37;16.10;;;8.48;;
23490;SDS011;14683;50.038;8.078;2023-02-28T21:36:04;13.57;;;7.25;;
23490;SDS011;14683;50.038;8.078;2023-02-28T21:38:32;11.13;;;7.20;;
23490;SDS011;14683;50.038;8.078;2023-02-28T21:41:03;13.38;;;7.40;;
23490;SDS011;14683;50.038;8.078;2023-02-28T21:43:29;11.52;;;7.72;;
